createdAt,value
2022-12-17T00:00:29.263Z,-1.00
2022-12-17T00:03:18.637Z,-1.00
2022-12-17T00:06:04.458Z,-1.00
2022-12-17T00:08:49.664Z,-1.00
2022-12-17T00:11:34.963Z,-1.10
2022-12-17T00:14:19.942Z,-1.10
2022-12-17T00:17:06.243Z,-1.10
2022-12-17T00:19:53.046Z,-1.30
2022-12-17T00:22:41.529Z,-1.30
2022-12-17T00:25:26.818Z,-1.40
2022-12-17T00:28:11.951Z,-1.70
2022-12-17T00:30:57.184Z,-1.60
2022-12-17T00:33:42.403Z,-1.60
2022-12-17T00:36:27.623Z,-1.60
2022-12-17T00:39:12.963Z,-1.60
2022-12-17T00:41:58.238Z,-1.50
2022-12-17T00:44:43.541Z,-1.60
2022-12-17T00:47:28.770Z,-1.60
2022-12-17T00:50:13.959Z,-1.60
2022-12-17T00:52:59.264Z,-1.70
2022-12-17T00:55:44.254Z,-1.70
2022-12-17T00:58:29.712Z,-1.70
2022-12-17T01:01:19.152Z,-1.70
2022-12-17T01:04:04.279Z,-1.70
2022-12-17T01:06:49.668Z,-1.70
2022-12-17T01:09:35.272Z,-1.70
2022-12-17T01:12:20.680Z,-1.70
2022-12-17T01:15:08.539Z,-1.70
2022-12-17T01:17:54.075Z,-1.80
2022-12-17T01:20:47.160Z,-1.80
2022-12-17T01:23:34.657Z,-1.80
2022-12-17T01:26:22.910Z,-1.90
2022-12-17T01:29:08.219Z,-1.90
2022-12-17T01:31:53.400Z,-1.90
2022-12-17T01:34:38.689Z,-1.90
2022-12-17T01:37:25.027Z,-2.00
2022-12-17T01:40:12.671Z,-2.10
2022-12-17T01:43:03.826Z,-2.10
2022-12-17T01:45:57.935Z,-2.10
2022-12-17T01:48:52.693Z,-2.10
2022-12-17T01:51:38.200Z,-2.20
2022-12-17T01:54:24.490Z,-2.20
2022-12-17T01:57:10.059Z,-2.20
2022-12-17T02:00:01.276Z,-2.20
2022-12-17T02:02:46.757Z,-2.20
2022-12-17T02:05:31.908Z,-2.20
2022-12-17T02:08:39.058Z,-2.20
2022-12-17T02:11:33.940Z,-2.20
2022-12-17T02:14:31.233Z,-2.20
2022-12-17T02:17:21.155Z,-2.30
2022-12-17T02:20:18.598Z,-2.20
2022-12-17T02:23:34.150Z,-2.30
2022-12-17T02:26:58.727Z,-2.40
2022-12-17T02:29:47.093Z,-2.60
2022-12-17T02:32:44.322Z,-2.60
2022-12-17T02:35:41.233Z,-2.30
2022-12-17T02:38:41.327Z,-2.70
2022-12-17T02:41:34.020Z,-3.00
2022-12-17T02:44:19.717Z,-2.70
2022-12-17T02:47:06.635Z,-2.70
2022-12-17T02:49:52.306Z,-2.70
2022-12-17T02:52:39.337Z,-2.60
2022-12-17T02:55:25.485Z,-2.60
2022-12-17T02:58:11.331Z,-2.70
2022-12-17T03:00:56.486Z,-2.60
2022-12-17T03:03:44.987Z,-2.70
2022-12-17T03:06:35.793Z,-2.70
2022-12-17T03:09:21.399Z,-2.70
2022-12-17T03:12:06.538Z,-2.70
2022-12-17T03:14:51.807Z,-2.80
2022-12-17T03:17:36.903Z,-2.80
2022-12-17T03:20:22.986Z,-2.80
2022-12-17T03:23:08.014Z,-2.70
2022-12-17T03:25:53.741Z,-2.80
2022-12-17T03:28:39.290Z,-2.80
2022-12-17T03:31:24.740Z,-2.80
2022-12-17T03:34:10.222Z,-2.70
2022-12-17T03:36:55.379Z,-2.80
2022-12-17T03:39:40.772Z,-2.80
2022-12-17T03:42:25.911Z,-2.80
2022-12-17T03:45:11.104Z,-2.90
2022-12-17T03:47:56.519Z,-2.90
2022-12-17T03:50:46.326Z,-2.90
2022-12-17T03:53:31.574Z,-2.90
2022-12-17T03:56:17.127Z,-3.00
2022-12-17T03:59:02.593Z,-2.90
2022-12-17T04:01:47.780Z,-3.00
2022-12-17T04:04:33.659Z,-2.90
2022-12-17T04:07:21.955Z,-2.90
2022-12-17T04:10:07.362Z,-3.00
2022-12-17T04:12:52.462Z,-3.00
2022-12-17T04:15:37.835Z,-3.00
2022-12-17T04:18:23.007Z,-3.00
2022-12-17T04:21:08.180Z,-3.00
2022-12-17T04:23:53.442Z,-3.10
2022-12-17T04:26:38.599Z,-3.10
2022-12-17T04:29:24.024Z,-3.10
2022-12-17T04:32:09.571Z,-3.10
2022-12-17T04:34:54.857Z,-3.10
2022-12-17T04:37:40.425Z,-3.10
2022-12-17T04:40:27.203Z,-3.10
2022-12-17T04:43:12.579Z,-3.10
2022-12-17T04:45:57.732Z,-3.10
2022-12-17T04:48:42.999Z,-3.10
2022-12-17T04:51:28.423Z,-3.10
2022-12-17T04:54:13.809Z,-3.20
2022-12-17T04:56:58.979Z,-3.20
2022-12-17T04:59:44.000Z,-3.20
2022-12-17T05:02:29.538Z,-3.20
2022-12-17T05:05:14.832Z,-3.20
2022-12-17T05:08:00.227Z,-3.20
2022-12-17T05:10:45.700Z,-3.20
2022-12-17T05:13:30.905Z,-3.30
2022-12-17T05:16:16.706Z,-3.20
2022-12-17T05:19:02.295Z,-3.30
2022-12-17T05:21:47.718Z,-3.30
2022-12-17T05:24:32.925Z,-3.30
2022-12-17T05:27:17.976Z,-3.30
2022-12-17T05:30:03.371Z,-3.40
2022-12-17T05:32:48.448Z,-3.40
2022-12-17T05:35:34.937Z,-3.40
2022-12-17T05:38:24.387Z,-3.40
2022-12-17T05:41:10.410Z,-3.40
2022-12-17T05:43:55.577Z,-3.50
2022-12-17T05:46:40.924Z,-3.50
2022-12-17T05:49:26.313Z,-3.50
2022-12-17T05:52:11.565Z,-3.50
2022-12-17T05:54:56.715Z,-3.50
2022-12-17T05:57:42.322Z,-3.50
2022-12-17T06:00:28.001Z,-3.60
2022-12-17T06:03:21.906Z,-3.60
2022-12-17T06:06:11.939Z,-3.60
2022-12-17T06:08:57.191Z,-3.60
2022-12-17T06:11:42.506Z,-3.60
2022-12-17T06:14:27.696Z,-3.70
2022-12-17T06:17:21.740Z,-3.60
2022-12-17T06:20:07.204Z,-3.60
2022-12-17T06:22:52.483Z,-3.70
2022-12-17T06:25:37.590Z,-3.70
2022-12-17T06:28:22.763Z,-3.70
2022-12-17T06:31:10.074Z,-3.70
2022-12-17T06:33:55.963Z,-3.70
2022-12-17T06:36:41.908Z,-3.70
2022-12-17T06:39:27.667Z,-3.80
2022-12-17T06:42:12.856Z,-3.80
2022-12-17T06:44:58.760Z,-3.70
2022-12-17T06:47:44.384Z,-3.70
2022-12-17T06:50:30.183Z,-3.70
2022-12-17T06:53:23.678Z,-3.70
2022-12-17T06:56:09.459Z,-3.80
2022-12-17T06:58:55.458Z,-3.80
2022-12-17T07:01:41.432Z,-3.80
2022-12-17T07:04:27.189Z,-3.80
2022-12-17T07:07:12.462Z,-3.80
2022-12-17T07:09:57.725Z,-3.70
2022-12-17T07:12:43.009Z,-3.60
2022-12-17T07:15:28.683Z,-3.60
2022-12-17T07:18:21.388Z,-3.70
2022-12-17T07:21:07.618Z,-3.60
2022-12-17T07:23:53.007Z,-3.60
2022-12-17T07:26:38.125Z,-3.60
2022-12-17T07:29:23.202Z,-3.60
2022-12-17T07:32:08.983Z,-3.60
2022-12-17T07:34:54.350Z,-3.60
2022-12-17T07:37:39.549Z,-3.60
2022-12-17T07:40:26.121Z,-3.60
2022-12-17T07:43:11.382Z,-3.60
2022-12-17T07:45:56.986Z,-3.60
2022-12-17T07:48:42.187Z,-3.60
2022-12-17T07:51:27.509Z,-3.50
2022-12-17T07:54:12.636Z,-3.50
2022-12-17T07:56:58.246Z,-3.50
2022-12-17T07:59:43.682Z,-3.40
2022-12-17T08:02:29.605Z,-3.40
2022-12-17T08:05:15.373Z,-3.50
2022-12-17T08:08:00.423Z,-3.50
2022-12-17T08:10:45.891Z,-3.50
2022-12-17T08:13:31.159Z,-3.50
2022-12-17T08:16:16.449Z,-3.40
2022-12-17T08:19:02.072Z,-3.30
2022-12-17T08:21:47.294Z,-3.20
2022-12-17T08:24:32.478Z,-3.30
2022-12-17T08:27:17.642Z,-3.20
2022-12-17T08:30:02.823Z,-3.20
2022-12-17T08:32:48.086Z,-3.30
2022-12-17T08:35:33.379Z,-3.30
2022-12-17T08:38:25.071Z,-3.30
2022-12-17T08:41:10.325Z,-3.30
2022-12-17T08:43:55.429Z,-3.30
2022-12-17T08:46:40.804Z,-3.20
2022-12-17T08:49:26.015Z,-3.20
2022-12-17T08:52:11.342Z,-3.10
2022-12-17T08:54:56.504Z,-3.00
2022-12-17T08:57:41.645Z,-2.90
2022-12-17T09:00:28.190Z,-2.80
2022-12-17T09:03:21.287Z,-2.80
2022-12-17T09:06:06.593Z,-2.70
2022-12-17T09:08:51.947Z,-2.60
2022-12-17T09:11:37.489Z,-2.50
2022-12-17T09:14:22.480Z,-2.50
2022-12-17T09:17:09.429Z,-2.50
2022-12-17T09:19:54.899Z,-2.40
2022-12-17T09:22:40.302Z,-2.30
2022-12-17T09:25:26.378Z,-2.20
2022-12-17T09:28:11.852Z,-2.10
2022-12-17T09:30:57.018Z,-2.00
2022-12-17T09:33:42.529Z,-1.90
2022-12-17T09:36:27.818Z,-1.80
2022-12-17T09:39:13.223Z,-1.80
2022-12-17T09:42:04.151Z,-1.70
2022-12-17T09:45:22.407Z,-1.60
2022-12-17T09:48:32.691Z,-1.50
2022-12-17T09:51:18.301Z,-1.40
2022-12-17T09:54:10.372Z,-1.30
2022-12-17T09:56:57.856Z,-1.20
2022-12-17T09:59:53.469Z,-1.20
2022-12-17T10:02:46.836Z,-1.10
2022-12-17T10:05:42.844Z,-1.10
2022-12-17T10:08:32.119Z,-1.00
2022-12-17T10:11:34.545Z,-0.90
2022-12-17T10:14:36.910Z,-0.70
2022-12-17T10:17:23.101Z,-0.60
2022-12-17T10:20:10.894Z,-0.60
2022-12-17T10:23:05.740Z,-0.60
2022-12-17T10:25:51.124Z,-0.70
2022-12-17T10:28:39.341Z,-0.60
2022-12-17T10:31:36.281Z,-0.50
2022-12-17T10:34:26.376Z,-0.50
2022-12-17T10:37:12.363Z,-0.40
2022-12-17T10:39:59.676Z,-0.30
2022-12-17T10:42:46.563Z,-0.20
2022-12-17T10:45:42.371Z,-0.10
2022-12-17T10:48:48.199Z,-0.10
2022-12-17T10:51:54.910Z,-0.10
2022-12-17T10:54:59.033Z,0.00
2022-12-17T10:57:46.974Z,0.10
2022-12-17T11:00:55.255Z,0.10
2022-12-17T11:03:47.898Z,0.30
2022-12-17T11:06:43.016Z,0.30
2022-12-17T11:10:06.948Z,0.40
2022-12-17T11:13:04.353Z,0.50
2022-12-17T11:15:56.124Z,0.60
2022-12-17T11:19:10.636Z,0.70
2022-12-17T11:22:02.128Z,0.70
2022-12-17T11:24:56.152Z,0.80
2022-12-17T11:27:47.649Z,0.90
2022-12-17T11:30:34.919Z,0.90
2022-12-17T11:33:58.148Z,1.00
2022-12-17T11:37:31.840Z,1.10
2022-12-17T11:40:48.250Z,0.90
2022-12-17T11:43:42.354Z,1.10
2022-12-17T11:46:54.489Z,1.20
2022-12-17T11:49:55.534Z,1.30
2022-12-17T11:52:50.608Z,1.40
2022-12-17T11:55:54.894Z,1.60
2022-12-17T11:59:10.176Z,1.70
2022-12-17T12:02:10.198Z,1.70
2022-12-17T12:05:26.004Z,1.70
2022-12-17T12:08:42.174Z,1.80
2022-12-17T12:11:58.960Z,1.80
2022-12-17T12:15:06.464Z,2.10
2022-12-17T12:18:10.158Z,2.20
2022-12-17T12:21:17.025Z,2.30
2022-12-17T12:24:19.904Z,2.30
2022-12-17T12:27:45.637Z,2.40
2022-12-17T12:30:43.940Z,2.40
2022-12-17T12:33:37.982Z,2.50
2022-12-17T12:36:26.915Z,2.50
2022-12-17T12:39:14.814Z,2.50
2022-12-17T12:42:00.331Z,2.60
2022-12-17T12:44:59.557Z,2.60
2022-12-17T12:47:59.705Z,2.70
2022-12-17T12:51:14.245Z,2.60
2022-12-17T12:53:59.728Z,2.70
2022-12-17T12:56:53.706Z,2.80
2022-12-17T12:59:50.361Z,3.00
2022-12-17T13:02:50.221Z,2.80
2022-12-17T13:05:34.960Z,2.70
2022-12-17T13:08:07.595Z,2.70
2022-12-17T13:10:36.014Z,2.70
2022-12-17T13:13:29.485Z,2.80
2022-12-17T13:16:20.578Z,2.90
2022-12-17T13:18:47.544Z,2.90
2022-12-17T13:21:20.032Z,3.00
2022-12-17T13:23:46.646Z,3.00
2022-12-17T13:26:42.210Z,3.10
2022-12-17T13:29:17.125Z,2.90
2022-12-17T13:32:03.641Z,2.80
2022-12-17T13:34:44.112Z,2.90
2022-12-17T13:37:43.882Z,3.00
2022-12-17T13:40:22.491Z,2.80
2022-12-17T13:42:49.342Z,2.80
2022-12-17T13:45:18.510Z,2.90
2022-12-17T13:47:57.027Z,3.00
2022-12-17T13:50:36.607Z,3.10
2022-12-17T13:53:12.298Z,3.20
2022-12-17T13:55:39.310Z,3.30
2022-12-17T13:58:06.017Z,3.10
2022-12-17T14:00:32.896Z,3.00
2022-12-17T14:03:10.263Z,2.80
2022-12-17T14:05:42.449Z,2.70
2022-12-17T14:08:12.403Z,2.70
2022-12-17T14:10:47.576Z,2.70
2022-12-17T14:13:15.852Z,2.80
2022-12-17T14:15:49.489Z,2.90
2022-12-17T14:18:19.597Z,2.80
2022-12-17T14:20:46.953Z,2.80
2022-12-17T14:23:28.143Z,2.80
2022-12-17T14:25:55.132Z,2.80
2022-12-17T14:28:31.098Z,2.90
2022-12-17T14:31:26.761Z,2.80
2022-12-17T14:34:08.205Z,2.60
2022-12-17T14:36:40.540Z,2.60
2022-12-17T14:39:17.371Z,2.60
2022-12-17T14:42:02.860Z,2.60
2022-12-17T14:44:30.929Z,2.60
2022-12-17T14:47:21.490Z,2.60
2022-12-17T14:49:57.073Z,2.40
2022-12-17T14:52:39.202Z,2.30
2022-12-17T14:55:35.018Z,2.30
2022-12-17T14:58:13.714Z,2.30
2022-12-17T15:00:44.916Z,2.30
2022-12-17T15:08:42.373Z,2.00
2022-12-17T15:11:12.569Z,1.90
2022-12-17T15:13:39.616Z,1.90
2022-12-17T15:16:06.781Z,1.90
2022-12-17T15:18:33.569Z,1.90
2022-12-17T15:21:01.484Z,1.90
2022-12-17T15:23:28.076Z,1.90
2022-12-17T15:25:54.994Z,1.90
2022-12-17T15:28:22.235Z,1.90
2022-12-17T15:30:49.970Z,1.80
2022-12-17T15:33:17.014Z,1.70
2022-12-17T15:35:44.035Z,1.60
2022-12-17T15:38:12.143Z,1.60
2022-12-17T15:40:39.832Z,1.50
2022-12-17T15:43:11.141Z,1.40
2022-12-17T15:45:45.108Z,1.40
2022-12-17T15:48:13.589Z,1.40
2022-12-17T15:50:40.184Z,1.30
2022-12-17T15:53:07.673Z,1.30
2022-12-17T15:55:34.197Z,1.30
2022-12-17T15:58:01.043Z,1.20
2022-12-17T16:00:27.658Z,1.20
2022-12-17T16:02:54.784Z,1.20
2022-12-17T16:05:22.087Z,1.20
2022-12-17T16:07:50.280Z,1.20
2022-12-17T16:10:17.735Z,1.10
2022-12-17T16:12:45.057Z,1.00
2022-12-17T16:15:12.811Z,0.90
2022-12-17T16:17:39.433Z,0.80
2022-12-17T16:20:06.795Z,0.80
2022-12-17T16:22:33.399Z,0.80
2022-12-17T16:25:02.352Z,0.80
2022-12-17T16:27:28.861Z,0.80
2022-12-17T16:29:55.669Z,0.70
2022-12-17T16:32:22.557Z,0.70
2022-12-17T16:34:49.153Z,0.60
2022-12-17T16:37:15.749Z,0.60
2022-12-17T16:39:42.354Z,0.50
2022-12-17T16:42:09.252Z,0.50
2022-12-17T16:44:35.806Z,0.50
2022-12-17T16:47:05.119Z,0.50
2022-12-17T16:49:31.805Z,0.50
2022-12-17T16:52:01.215Z,0.50
2022-12-17T16:54:31.007Z,0.40
2022-12-17T16:56:58.702Z,0.40
2022-12-17T16:59:25.290Z,0.40
2022-12-17T17:01:52.730Z,0.40
2022-12-17T17:04:21.942Z,0.40
2022-12-17T17:06:51.505Z,0.40
2022-12-17T17:09:19.049Z,0.40
2022-12-17T17:11:51.130Z,0.30
2022-12-17T17:14:18.454Z,0.30
2022-12-17T17:16:45.265Z,0.30
2022-12-17T17:19:11.963Z,0.30
2022-12-17T17:21:47.689Z,0.20
2022-12-17T17:24:21.448Z,0.20
2022-12-17T17:26:50.184Z,0.20
2022-12-17T17:29:17.055Z,0.20
2022-12-17T17:34:30.652Z,0.20
2022-12-17T17:36:57.270Z,0.10
2022-12-17T17:39:23.799Z,0.00
2022-12-17T17:41:50.667Z,0.00
2022-12-17T17:44:17.243Z,0.00
2022-12-17T17:46:44.237Z,0.00
2022-12-17T17:49:11.745Z,0.00
2022-12-17T17:54:28.528Z,-0.10
2022-12-17T17:56:55.119Z,-0.30
2022-12-17T17:59:27.830Z,-0.50
2022-12-17T18:02:00.176Z,-0.60
2022-12-17T18:04:26.911Z,-0.60
2022-12-17T18:07:23.714Z,-0.60
2022-12-17T18:09:40.144Z,-0.70
2022-12-17T18:12:28.462Z,-0.80
2022-12-17T18:15:13.669Z,-0.90
2022-12-17T18:17:41.792Z,-1.00
2022-12-17T18:20:09.527Z,-1.10
2022-12-17T18:22:36.159Z,-1.10
2022-12-17T18:25:02.834Z,-1.20
2022-12-17T18:27:29.385Z,-1.10
2022-12-17T18:29:55.937Z,-1.00
2022-12-17T18:32:22.488Z,-1.00
2022-12-17T18:34:49.109Z,-1.00
2022-12-17T18:37:15.675Z,-1.10
2022-12-17T18:39:42.560Z,-1.00
2022-12-17T18:42:28.340Z,-1.00
2022-12-17T18:44:54.961Z,-0.90
2022-12-17T18:47:21.701Z,-0.90
2022-12-17T18:49:48.522Z,-0.90
2022-12-17T18:52:17.253Z,-0.80
2022-12-17T18:54:44.394Z,-0.90
2022-12-17T18:57:11.194Z,-0.90
2022-12-17T18:59:38.478Z,-0.80
2022-12-17T19:02:05.310Z,-0.80
2022-12-17T19:04:33.169Z,-0.90
2022-12-17T19:07:00.168Z,-0.90
2022-12-17T19:09:29.935Z,-0.90
2022-12-17T19:11:58.121Z,-0.90
2022-12-17T19:14:25.652Z,-0.90
2022-12-17T19:16:54.189Z,-0.90
2022-12-17T19:19:21.967Z,-1.00
2022-12-17T19:21:49.576Z,-0.90
2022-12-17T19:24:18.117Z,-1.00
2022-12-17T19:26:45.161Z,-1.00
2022-12-17T19:29:13.683Z,-1.00
2022-12-17T19:31:40.357Z,-1.00
2022-12-17T19:34:10.174Z,-1.10
2022-12-17T19:36:38.477Z,-1.10
2022-12-17T19:39:07.547Z,-1.10
2022-12-17T19:41:34.949Z,-1.20
2022-12-17T19:44:05.116Z,-1.20
2022-12-17T19:46:34.218Z,-1.20
2022-12-17T19:49:01.653Z,-1.20
2022-12-17T19:51:29.662Z,-1.20
2022-12-17T19:53:56.847Z,-1.20
2022-12-17T19:56:29.899Z,-1.30
2022-12-17T19:59:04.194Z,-1.30
2022-12-17T20:01:45.609Z,-1.40
2022-12-17T20:04:14.093Z,-1.30
2022-12-17T20:06:41.803Z,-1.30
2022-12-17T20:09:08.447Z,-1.30
2022-12-17T20:11:37.644Z,-1.30
2022-12-17T20:14:18.512Z,-1.30
2022-12-17T20:16:48.400Z,-1.30
2022-12-17T20:19:21.356Z,-1.30
2022-12-17T20:21:48.611Z,-1.30
2022-12-17T20:24:16.329Z,-1.30
2022-12-17T20:26:44.588Z,-1.30
2022-12-17T20:29:11.627Z,-1.30
2022-12-17T20:31:39.084Z,-1.30
2022-12-17T20:34:08.616Z,-1.30
2022-12-17T20:36:36.209Z,-1.30
2022-12-17T20:39:03.222Z,-1.30
2022-12-17T20:41:32.116Z,-1.40
2022-12-17T20:44:03.297Z,-1.30
2022-12-17T20:46:29.934Z,-1.40
2022-12-17T20:48:58.980Z,-1.30
2022-12-17T20:51:28.587Z,-1.40
2022-12-17T20:53:56.396Z,-1.40
2022-12-17T20:56:26.273Z,-1.40
2022-12-17T20:58:59.150Z,-1.40
2022-12-17T21:01:28.417Z,-1.50
2022-12-17T21:03:59.171Z,-1.50
2022-12-17T21:06:28.742Z,-1.50
2022-12-17T21:08:55.965Z,-1.50
2022-12-17T21:11:24.947Z,-1.50
2022-12-17T21:13:52.694Z,-1.60
2022-12-17T21:16:23.541Z,-1.60
2022-12-17T21:18:50.336Z,-1.70
2022-12-17T21:21:22.823Z,-1.70
2022-12-17T21:23:50.499Z,-1.70
2022-12-17T21:26:22.063Z,-1.70
2022-12-17T21:28:51.590Z,-1.80
2022-12-17T21:31:32.229Z,-1.80
2022-12-17T21:34:06.096Z,-1.80
2022-12-17T21:36:35.100Z,-1.80
2022-12-17T21:39:09.308Z,-1.80
2022-12-17T21:41:39.273Z,-1.80
2022-12-17T21:44:11.962Z,-1.80
2022-12-17T21:46:39.488Z,-1.90
2022-12-17T21:49:07.414Z,-1.90
2022-12-17T21:51:35.011Z,-1.90
2022-12-17T21:54:08.245Z,-1.90
2022-12-17T21:56:35.653Z,-1.90
2022-12-17T21:59:04.258Z,-1.90
2022-12-17T22:01:34.186Z,-1.90
2022-12-17T22:04:02.972Z,-1.90
2022-12-17T22:06:34.303Z,-1.90
2022-12-17T22:09:18.470Z,-1.90
2022-12-17T22:12:15.281Z,-1.90
2022-12-17T22:14:41.892Z,-1.90
2022-12-17T22:17:08.480Z,-2.00
2022-12-17T22:19:35.112Z,-2.00
2022-12-17T22:22:03.469Z,-2.00
2022-12-17T22:24:36.111Z,-2.00
2022-12-17T22:27:03.788Z,-1.90
2022-12-17T22:29:50.107Z,-2.00
2022-12-17T22:32:35.385Z,-2.00
2022-12-17T22:35:48.979Z,-2.10
2022-12-17T22:39:57.159Z,-2.10
2022-12-17T22:42:35.957Z,-2.10
2022-12-17T22:44:44.735Z,-2.20
2022-12-17T22:46:16.691Z,-2.20
2022-12-17T22:48:43.358Z,-2.20
2022-12-17T22:51:12.564Z,-2.20
2022-12-17T22:53:43.668Z,-2.30
2022-12-17T22:56:22.401Z,-2.30
2022-12-17T22:58:57.852Z,-2.40
2022-12-17T23:01:24.734Z,-2.40
2022-12-17T23:03:55.613Z,-2.40
2022-12-17T23:06:22.818Z,-2.40
2022-12-17T23:08:49.972Z,-2.40
2022-12-17T23:11:19.606Z,-2.40
2022-12-17T23:13:46.842Z,-2.50
2022-12-17T23:16:14.094Z,-2.50
2022-12-17T23:18:42.156Z,-2.50
2022-12-17T23:21:10.973Z,-2.50
2022-12-17T23:23:38.318Z,-2.60
2022-12-17T23:26:13.978Z,-2.50
2022-12-17T23:28:40.989Z,-2.60
2022-12-17T23:31:14.168Z,-2.60
2022-12-17T23:33:41.720Z,-2.50
2022-12-17T23:36:11.521Z,-2.60
2022-12-17T23:38:40.385Z,-2.60
2022-12-17T23:41:12.720Z,-2.60
2022-12-17T23:43:40.022Z,-2.60
2022-12-17T23:46:07.609Z,-2.70
2022-12-17T23:48:42.012Z,-2.70
2022-12-17T23:51:12.256Z,-2.70
2022-12-17T23:53:39.363Z,-2.70
2022-12-17T23:56:15.602Z,-2.80
2022-12-17T23:58:43.922Z,-2.80
